KGMU/GMU METAR and TAF weather

Enter ICAO airport designator
Station Type Date Time Source
KGMU METAR 2020/09/27 15:00 UTC NOAA

KGMU 271500Z 23003KT 10SM SCT005 SCT017 BKN065 20/19 A3005 RMK AO2 T02000189


Station Type Date Time Source
KGMU Decoded METAR 2020/09/27 15:00 UTC NOAA

GREENVILLE DOWNTOWN AIRPORT , SC, United States (KGMU) 34-51N 82-21W 315M
Sep 27, 2020 - 11:00 AM EDT / 2020.09.27 1500 UTC
Wind: from the SW (230 degrees) at 3 MPH (3 KT):0
Visibility: 10 mile(s):0
Sky conditions: mostly cloudy
Temperature: 68.0 F (20.0 C)
Dew Point: 66.0 F (18.9 C)
Relative Humidity: 93%
Pressure (altimeter): 30.05 in. Hg (1017 hPa)
ob: KGMU 271500Z 23003KT 10SM SCT005 SCT017 BKN065 20/19 A3005 RMK AO2 T02000189
cycle: 15

Station Type Date Time Source
KGMU TAF 2020/09/27 15:15 UTC NOAA

TAF
AMD KGMU 271511Z 2715/2812 23003KT P6SM SCT017 BKN070
TEMPO 2715/2718 BKN017
FM271800 21005KT P6SM BKN026
FM272000 21006KT P6SM BKN035
FM280200 19005KT P6SM BKN011
FM280300 20004KT 5SM BR BKN004 PROB30 2806/2812 2SM -SHRA BR OVC003

Example: see airport list